createdAt,value
2023-03-06T00:01:00.212Z,1.47
2023-03-06T00:03:28.185Z,1.48
2023-03-06T00:05:57.398Z,1.53
2023-03-06T00:08:25.489Z,1.70
2023-03-06T00:10:52.671Z,1.76
2023-03-06T00:13:20.027Z,1.71
2023-03-06T00:15:47.992Z,1.69
2023-03-06T00:18:15.459Z,1.56
2023-03-06T00:20:43.595Z,1.51
2023-03-06T00:23:11.200Z,1.22
2023-03-06T00:25:38.937Z,1.18
2023-03-06T00:28:06.495Z,1.10
2023-03-06T00:30:33.976Z,1.11
2023-03-06T00:33:00.624Z,0.70
2023-03-06T00:35:27.325Z,0.44
2023-03-06T00:37:54.093Z,0.60
2023-03-06T00:40:22.032Z,0.75
2023-03-06T00:42:48.882Z,0.69
2023-03-06T00:45:16.130Z,0.73
2023-03-06T00:47:43.650Z,0.76
2023-03-06T00:50:11.100Z,1.02
2023-03-06T00:52:37.838Z,1.28
2023-03-06T00:55:05.767Z,1.22
2023-03-06T00:57:32.510Z,1.42
2023-03-06T00:59:59.504Z,1.53
2023-03-06T01:02:26.200Z,1.59
2023-03-06T01:04:52.938Z,1.55
2023-03-06T01:07:19.581Z,1.71
2023-03-06T01:09:46.185Z,1.57
2023-03-06T01:12:12.866Z,1.58
2023-03-06T01:14:39.471Z,1.57
2023-03-06T01:17:06.088Z,1.54
2023-03-06T01:19:32.821Z,1.61
2023-03-06T01:21:59.498Z,1.16
2023-03-06T01:24:26.209Z,1.17
2023-03-06T01:26:52.975Z,1.19
2023-03-06T01:29:21.123Z,0.87
2023-03-06T01:31:47.918Z,0.58
2023-03-06T01:34:14.904Z,0.65
2023-03-06T01:36:41.691Z,0.77
2023-03-06T01:39:08.403Z,0.85
2023-03-06T01:41:35.401Z,1.00
2023-03-06T01:44:02.717Z,1.07
2023-03-06T01:46:29.548Z,1.12
2023-03-06T01:49:02.916Z,1.06
2023-03-06T01:51:34.716Z,0.97
2023-03-06T01:54:08.848Z,1.05
2023-03-06T01:56:36.233Z,1.04
2023-03-06T01:59:03.409Z,1.16
2023-03-06T02:01:31.345Z,1.12
2023-03-06T02:03:59.679Z,1.25
2023-03-06T02:06:27.278Z,1.26
2023-03-06T02:08:54.695Z,1.22
2023-03-06T02:11:25.818Z,1.27
2023-03-06T02:13:54.821Z,1.32
2023-03-06T02:16:26.515Z,1.19
2023-03-06T02:18:53.953Z,1.23
2023-03-06T02:21:25.719Z,1.31
2023-03-06T02:24:02.199Z,1.29
2023-03-06T02:26:29.982Z,1.36
2023-03-06T02:28:58.530Z,1.30
2023-03-06T02:31:28.978Z,1.31
2023-03-06T02:34:06.787Z,1.06
2023-03-06T02:36:49.896Z,1.10
2023-03-06T02:39:20.275Z,1.10
2023-03-06T02:41:46.981Z,1.07
2023-03-06T02:44:13.761Z,1.05
2023-03-06T02:46:40.471Z,0.92
2023-03-06T02:49:07.128Z,1.03
2023-03-06T02:51:34.585Z,0.98
2023-03-06T02:54:01.270Z,0.91
2023-03-06T02:56:28.041Z,1.05
2023-03-06T02:58:54.731Z,0.99
2023-03-06T03:01:21.427Z,0.80
2023-03-06T03:03:48.219Z,0.79
2023-03-06T03:06:14.971Z,0.85
2023-03-06T03:08:41.673Z,0.89
2023-03-06T03:11:09.435Z,0.86
2023-03-06T03:13:37.591Z,0.88
2023-03-06T03:16:06.250Z,0.78
2023-03-06T03:18:33.599Z,0.66
2023-03-06T03:21:00.486Z,0.50
2023-03-06T03:23:27.538Z,0.32
2023-03-06T03:25:54.690Z,0.35
2023-03-06T03:28:21.628Z,0.20
2023-03-06T03:30:50.071Z,0.14
2023-03-06T03:33:16.767Z,0.02
2023-03-06T03:35:43.484Z,0.18
2023-03-06T03:38:10.283Z,-0.06
2023-03-06T03:40:38.917Z,-0.18
2023-03-06T03:43:05.666Z,0.13
2023-03-06T03:45:32.333Z,0.25
2023-03-06T03:47:59.040Z,0.22
2023-03-06T03:50:25.914Z,0.10
2023-03-06T03:52:52.858Z,0.15
2023-03-06T03:55:19.455Z,0.28
2023-03-06T03:57:46.197Z,0.20
2023-03-06T04:00:16.635Z,-0.02
2023-03-06T04:02:45.157Z,-0.10
2023-03-06T04:05:14.660Z,-0.05
2023-03-06T04:07:42.632Z,0.11
2023-03-06T04:10:10.867Z,-0.13
2023-03-06T04:12:37.696Z,0.07
2023-03-06T04:15:07.069Z,0.00
2023-03-06T04:17:37.029Z,-0.18
2023-03-06T04:20:04.960Z,-0.07
2023-03-06T04:22:31.700Z,-0.32
2023-03-06T04:24:58.405Z,-0.46
2023-03-06T04:27:25.105Z,-0.46
2023-03-06T04:29:51.867Z,-0.63
2023-03-06T04:32:21.250Z,-0.78
2023-03-06T04:34:48.098Z,-0.63
2023-03-06T04:37:20.943Z,-0.44
2023-03-06T04:39:47.747Z,-0.89
2023-03-06T04:42:14.898Z,-0.94
2023-03-06T04:44:42.700Z,-0.92
2023-03-06T04:47:09.483Z,-0.75
2023-03-06T04:49:36.246Z,-0.67
2023-03-06T04:52:03.520Z,-0.52
2023-03-06T04:54:30.508Z,-0.61
2023-03-06T04:56:57.370Z,-0.48
2023-03-06T04:59:24.072Z,-0.67
2023-03-06T05:01:50.824Z,-0.79
2023-03-06T05:04:17.607Z,-0.72
2023-03-06T05:06:44.362Z,-0.98
2023-03-06T05:09:11.118Z,-0.69
2023-03-06T05:11:38.441Z,-0.34
2023-03-06T05:14:05.198Z,-0.33
2023-03-06T05:16:31.868Z,-0.15
2023-03-06T05:18:58.564Z,-0.09
2023-03-06T05:21:25.251Z,-0.02
2023-03-06T05:23:51.951Z,-0.27
2023-03-06T05:26:18.612Z,-0.36
2023-03-06T05:28:45.384Z,-0.59
2023-03-06T05:31:12.174Z,-0.60
2023-03-06T05:33:38.835Z,-0.67
2023-03-06T05:36:08.103Z,-0.52
2023-03-06T05:38:34.771Z,-0.28
2023-03-06T05:41:01.480Z,-0.31
2023-03-06T05:43:28.197Z,-0.18
2023-03-06T05:46:05.931Z,-0.23
2023-03-06T05:48:33.138Z,-0.23
2023-03-06T05:51:01.762Z,-0.40
2023-03-06T05:53:29.394Z,-0.39
2023-03-06T05:56:01.481Z,-0.21
2023-03-06T05:58:29.038Z,0.09
2023-03-06T06:00:55.779Z,0.24
2023-03-06T06:03:23.231Z,0.49
2023-03-06T06:05:50.318Z,0.62
2023-03-06T06:08:17.345Z,0.44
2023-03-06T06:10:44.249Z,0.01
2023-03-06T06:13:10.946Z,-0.07
2023-03-06T06:15:38.874Z,-0.32
2023-03-06T06:18:05.846Z,-0.33
2023-03-06T06:20:32.590Z,-0.32
2023-03-06T06:22:59.347Z,-0.45
2023-03-06T06:25:26.566Z,-0.43
2023-03-06T06:27:56.642Z,-0.20
2023-03-06T06:30:24.917Z,0.04
2023-03-06T06:32:51.567Z,0.28
2023-03-06T06:35:18.383Z,0.49
2023-03-06T06:37:45.142Z,0.90
2023-03-06T06:40:12.220Z,1.62
2023-03-06T06:42:40.241Z,2.42
2023-03-06T06:45:10.612Z,2.94
2023-03-06T06:47:41.861Z,3.20
2023-03-06T06:50:12.931Z,3.54
2023-03-06T06:52:40.442Z,4.50
2023-03-06T06:55:09.267Z,5.86
2023-03-06T06:57:35.964Z,6.62
2023-03-06T07:00:03.837Z,4.91
2023-03-06T07:02:32.303Z,5.58
2023-03-06T07:05:06.366Z,4.84
2023-03-06T07:07:38.197Z,5.53
2023-03-06T07:10:13.579Z,5.69
2023-03-06T07:12:40.344Z,7.06
2023-03-06T07:15:08.112Z,8.37
2023-03-06T07:17:34.826Z,7.73
2023-03-06T07:20:01.681Z,8.38
2023-03-06T07:22:31.962Z,9.22
2023-03-06T07:25:04.068Z,9.51
2023-03-06T07:27:30.885Z,10.09
2023-03-06T07:29:58.129Z,11.97
2023-03-06T07:32:25.118Z,11.59
2023-03-06T07:34:51.823Z,11.66
2023-03-06T07:37:18.563Z,10.93
2023-03-06T07:39:45.321Z,11.52
2023-03-06T07:42:15.096Z,12.57
2023-03-06T07:44:41.782Z,11.98
2023-03-06T07:47:08.575Z,11.72
2023-03-06T07:49:35.533Z,12.04
2023-03-06T07:52:02.309Z,12.85
2023-03-06T07:54:30.856Z,13.23
2023-03-06T07:56:57.619Z,14.01
2023-03-06T07:59:24.599Z,14.89
2023-03-06T08:01:51.332Z,14.20
2023-03-06T08:04:18.013Z,15.21
2023-03-06T08:06:44.739Z,15.41
2023-03-06T08:09:11.448Z,14.20
2023-03-06T08:11:38.156Z,15.06
2023-03-06T08:14:05.032Z,16.12
2023-03-06T08:16:31.893Z,15.79
2023-03-06T08:18:58.712Z,16.51
2023-03-06T08:21:27.627Z,18.69
2023-03-06T08:23:55.065Z,19.95
2023-03-06T08:26:27.692Z,17.93
2023-03-06T08:28:56.043Z,18.44
2023-03-06T08:31:28.589Z,17.14
2023-03-06T08:33:56.356Z,17.12
2023-03-06T08:36:23.999Z,16.51
2023-03-06T08:38:50.811Z,16.46
2023-03-06T08:41:17.704Z,16.63
2023-03-06T08:43:44.422Z,15.73
2023-03-06T08:46:11.947Z,15.67
2023-03-06T08:48:40.236Z,14.68
2023-03-06T08:51:09.504Z,16.96
2023-03-06T08:53:42.993Z,17.79
2023-03-06T08:56:31.708Z,18.50
2023-03-06T08:59:01.006Z,17.80
2023-03-06T09:01:36.822Z,15.57
2023-03-06T09:04:06.997Z,14.54
2023-03-06T09:06:39.290Z,13.23
2023-03-06T09:09:06.939Z,13.36
2023-03-06T09:11:34.288Z,14.28
2023-03-06T09:14:01.124Z,15.49
2023-03-06T09:16:27.946Z,16.94
2023-03-06T09:18:54.940Z,18.18
2023-03-06T09:21:22.645Z,18.50
2023-03-06T09:23:50.085Z,18.99
2023-03-06T09:26:17.483Z,17.64
2023-03-06T09:28:44.462Z,16.29
2023-03-06T09:31:13.788Z,14.11
2023-03-06T09:33:40.813Z,14.34
2023-03-06T09:36:09.033Z,16.36
2023-03-06T09:38:35.729Z,16.94
2023-03-06T09:41:31.857Z,15.76
2023-03-06T09:44:09.160Z,14.17
2023-03-06T09:46:46.056Z,15.02
2023-03-06T09:49:45.233Z,15.50
2023-03-06T09:52:17.882Z,14.47
2023-03-06T09:54:54.115Z,11.05
2023-03-06T09:57:26.120Z,12.91
2023-03-06T09:59:57.915Z,12.66
2023-03-06T10:02:40.221Z,13.35
2023-03-06T10:05:24.195Z,15.69
2023-03-06T10:07:57.207Z,15.96
2023-03-06T10:10:27.247Z,16.80
2023-03-06T10:13:18.682Z,17.98
2023-03-06T10:15:48.156Z,18.30
2023-03-06T10:18:14.907Z,19.34
2023-03-06T10:20:47.795Z,20.38
2023-03-06T10:23:29.383Z,19.07
2023-03-06T10:26:22.572Z,18.75
2023-03-06T10:29:11.691Z,16.77
2023-03-06T10:31:49.576Z,17.96
2023-03-06T10:34:37.642Z,14.94
2023-03-06T10:37:19.703Z,14.43
2023-03-06T10:39:48.483Z,16.26
2023-03-06T10:42:15.136Z,14.43
2023-03-06T10:44:41.899Z,13.89
2023-03-06T10:47:30.597Z,13.53
2023-03-06T10:50:02.673Z,13.76
2023-03-06T10:52:32.014Z,14.11
2023-03-06T10:55:29.265Z,14.36
2023-03-06T10:57:55.963Z,12.92
2023-03-06T11:00:33.247Z,11.78
2023-03-06T11:03:04.876Z,13.41
2023-03-06T11:05:31.637Z,13.61
2023-03-06T11:08:00.605Z,13.64
2023-03-06T11:10:29.088Z,13.90
2023-03-06T11:13:02.818Z,13.35
2023-03-06T11:15:29.923Z,13.47
2023-03-06T11:18:08.924Z,13.70
2023-03-06T11:20:51.879Z,14.47
2023-03-06T11:23:34.785Z,13.94
2023-03-06T11:26:16.697Z,15.01
2023-03-06T11:29:17.416Z,14.14
2023-03-06T11:31:56.951Z,13.68
2023-03-06T11:34:38.494Z,13.35
2023-03-06T11:37:29.564Z,13.60
2023-03-06T11:40:11.560Z,13.56
2023-03-06T11:42:42.751Z,13.75
2023-03-06T11:45:27.936Z,13.28
2023-03-06T11:48:17.474Z,13.73
2023-03-06T11:51:07.027Z,13.03
2023-03-06T11:53:37.060Z,13.09
2023-03-06T11:56:18.250Z,12.20
2023-03-06T11:59:15.846Z,12.32
2023-03-06T12:01:57.712Z,11.78
2023-03-06T12:05:08.293Z,11.78
2023-03-06T12:08:04.049Z,11.79
2023-03-06T12:10:36.862Z,11.85
2023-03-06T12:13:31.346Z,11.55
2023-03-06T12:16:25.905Z,12.26
2023-03-06T12:19:04.816Z,12.63
2023-03-06T12:21:40.288Z,13.24
2023-03-06T12:24:24.496Z,13.45
2023-03-06T12:26:57.057Z,13.65
2023-03-06T12:29:52.538Z,13.57
2023-03-06T12:32:46.887Z,12.92
2023-03-06T12:35:37.817Z,12.76
2023-03-06T12:38:10.348Z,12.32
2023-03-06T12:40:40.029Z,11.98
2023-03-06T12:43:34.133Z,10.82
2023-03-06T12:46:15.561Z,11.17
2023-03-06T12:48:45.891Z,10.96
2023-03-06T12:51:18.291Z,11.20
2023-03-06T12:53:45.784Z,11.69
2023-03-06T12:56:15.714Z,12.08
2023-03-06T12:58:56.479Z,11.28
2023-03-06T13:01:47.727Z,11.39
2023-03-06T13:04:49.855Z,11.59
2023-03-06T13:07:52.851Z,10.93
2023-03-06T13:10:27.895Z,11.32
2023-03-06T13:12:56.217Z,11.31
2023-03-06T13:15:43.185Z,11.59
2023-03-06T13:18:21.932Z,11.07
2023-03-06T13:20:58.909Z,11.46
2023-03-06T13:23:39.137Z,11.65
2023-03-06T13:26:11.159Z,11.67
2023-03-06T13:28:50.401Z,11.13
2023-03-06T13:31:55.037Z,10.87
2023-03-06T13:34:38.259Z,10.35
2023-03-06T13:37:13.851Z,10.37
2023-03-06T13:39:52.476Z,10.93
2023-03-06T13:42:37.167Z,11.09
2023-03-06T13:45:07.959Z,11.09
2023-03-06T13:50:44.667Z,10.93
2023-03-06T13:53:42.526Z,10.88
2023-03-06T13:56:32.929Z,10.77
2023-03-06T13:59:41.243Z,10.14
2023-03-06T14:02:34.096Z,10.09
2023-03-06T14:05:03.658Z,10.05
2023-03-06T14:07:33.570Z,9.94
2023-03-06T14:10:19.957Z,10.15
2023-03-06T14:12:49.675Z,10.25
2023-03-06T14:15:22.639Z,10.56
2023-03-06T14:18:01.836Z,9.84
2023-03-06T14:20:54.624Z,9.67
2023-03-06T14:23:21.259Z,9.28
2023-03-06T14:25:56.370Z,8.99
2023-03-06T14:28:28.837Z,8.92
2023-03-06T14:30:57.039Z,8.89
2023-03-06T14:33:32.213Z,9.00
2023-03-06T14:36:02.487Z,9.08
2023-03-06T14:38:35.730Z,9.31
2023-03-06T14:41:05.032Z,9.67
2023-03-06T14:43:32.411Z,9.94
2023-03-06T14:46:01.605Z,9.88
2023-03-06T14:48:42.804Z,9.80
2023-03-06T14:51:17.104Z,9.33
2023-03-06T14:53:46.425Z,9.19
2023-03-06T14:56:22.556Z,8.70
2023-03-06T14:59:00.369Z,8.72
2023-03-06T15:01:49.885Z,8.79
2023-03-06T15:04:31.932Z,8.57
2023-03-06T15:06:59.384Z,8.53
2023-03-06T15:09:32.862Z,8.34
2023-03-06T15:12:01.088Z,8.41
2023-03-06T15:14:42.189Z,8.03
2023-03-06T15:17:17.968Z,7.94
2023-03-06T15:19:47.063Z,8.01
2023-03-06T15:22:26.444Z,7.85
2023-03-06T15:24:54.450Z,8.00
2023-03-06T15:27:29.683Z,8.00
2023-03-06T15:30:30.462Z,7.92
2023-03-06T15:33:22.134Z,7.85
2023-03-06T15:35:57.722Z,7.55
2023-03-06T15:38:33.053Z,7.47
2023-03-06T15:41:02.300Z,7.34
2023-03-06T15:43:35.183Z,7.42
2023-03-06T15:46:02.094Z,7.35
2023-03-06T15:48:28.913Z,7.45
2023-03-06T15:50:55.644Z,7.43
2023-03-06T15:53:22.959Z,7.16
2023-03-06T15:55:51.552Z,7.13
2023-03-06T15:58:24.933Z,7.01
2023-03-06T16:00:52.071Z,7.02
2023-03-06T16:03:19.094Z,6.89
2023-03-06T16:05:45.786Z,6.83
2023-03-06T16:08:14.960Z,6.81
2023-03-06T16:10:44.054Z,6.79
2023-03-06T16:13:24.491Z,6.62
2023-03-06T16:15:51.375Z,6.53
2023-03-06T16:18:19.000Z,6.45
2023-03-06T16:20:46.570Z,6.54
2023-03-06T16:23:13.282Z,6.34
2023-03-06T16:25:43.052Z,6.31
2023-03-06T16:28:14.744Z,6.27
2023-03-06T16:30:43.290Z,6.17
2023-03-06T16:33:12.061Z,6.06
2023-03-06T16:35:39.908Z,5.99
2023-03-06T16:38:07.157Z,6.02
2023-03-06T16:40:38.415Z,5.92
2023-03-06T16:43:05.685Z,5.93
2023-03-06T16:45:36.458Z,6.01
2023-03-06T16:48:03.169Z,5.93
2023-03-06T16:50:33.274Z,5.90
2023-03-06T16:53:00.271Z,5.85
2023-03-06T16:55:27.698Z,5.83
2023-03-06T16:57:54.782Z,5.84
2023-03-06T17:00:24.613Z,5.90
2023-03-06T17:02:52.524Z,5.86
2023-03-06T17:05:20.171Z,5.79
2023-03-06T17:07:47.361Z,5.71
2023-03-06T17:10:16.507Z,5.67
2023-03-06T17:12:43.720Z,5.52
2023-03-06T17:15:11.574Z,5.54
2023-03-06T17:17:38.540Z,5.47
2023-03-06T17:20:07.784Z,5.44
2023-03-06T17:22:36.217Z,5.49
2023-03-06T17:25:06.853Z,5.44
2023-03-06T17:27:35.196Z,5.41
2023-03-06T17:30:02.571Z,5.38
2023-03-06T17:32:29.334Z,5.30
2023-03-06T17:34:57.119Z,5.29
2023-03-06T17:37:23.854Z,5.29
2023-03-06T17:39:50.713Z,5.15
2023-03-06T17:42:17.512Z,5.21
2023-03-06T17:44:44.331Z,5.24
2023-03-06T17:47:11.229Z,5.15
2023-03-06T17:49:37.984Z,5.07
2023-03-06T17:52:05.861Z,5.07
2023-03-06T17:54:33.357Z,5.06
2023-03-06T17:57:03.534Z,4.88
2023-03-06T17:59:31.565Z,5.00
2023-03-06T18:01:59.645Z,4.91
2023-03-06T18:04:26.934Z,4.68
2023-03-06T18:06:53.729Z,4.75
2023-03-06T18:09:20.520Z,4.74
2023-03-06T18:11:47.295Z,4.67
2023-03-06T18:14:14.289Z,4.74
2023-03-06T18:16:41.477Z,4.65
2023-03-06T18:19:11.412Z,4.38
2023-03-06T18:21:39.788Z,4.60
2023-03-06T18:24:07.370Z,4.58
2023-03-06T18:26:34.266Z,4.40
2023-03-06T18:29:03.835Z,4.34
2023-03-06T18:31:34.595Z,4.34
2023-03-06T18:34:05.637Z,4.26
2023-03-06T18:36:34.362Z,4.36
2023-03-06T18:39:03.986Z,4.41
2023-03-06T18:41:31.350Z,4.32
2023-03-06T18:44:00.300Z,4.29
2023-03-06T18:46:39.774Z,4.16
2023-03-06T18:49:07.160Z,4.22
2023-03-06T18:51:33.902Z,4.10
2023-03-06T18:54:02.671Z,4.18
2023-03-06T18:56:32.270Z,4.25
2023-03-06T18:59:04.433Z,4.32
2023-03-06T19:01:31.504Z,4.38
2023-03-06T19:04:02.958Z,4.39
2023-03-06T19:06:30.289Z,4.26
2023-03-06T19:08:58.826Z,4.14
2023-03-06T19:11:26.904Z,4.24
2023-03-06T19:13:53.857Z,4.22
2023-03-06T19:16:24.662Z,4.27
2023-03-06T19:18:51.500Z,4.13
2023-03-06T19:21:20.450Z,4.06
2023-03-06T19:23:48.320Z,3.97
2023-03-06T19:26:15.722Z,4.12
2023-03-06T19:28:43.585Z,4.05
2023-03-06T19:31:25.237Z,4.18
2023-03-06T19:33:53.541Z,4.24
2023-03-06T19:36:26.614Z,4.25
2023-03-06T19:38:57.432Z,4.12
2023-03-06T19:41:24.800Z,4.01
2023-03-06T19:43:54.578Z,3.95
2023-03-06T19:46:22.924Z,4.06
2023-03-06T19:49:01.149Z,4.13
2023-03-06T19:51:28.450Z,4.12
2023-03-06T19:53:57.017Z,4.09
2023-03-06T19:56:26.381Z,4.05
2023-03-06T19:58:53.556Z,3.65
2023-03-06T20:01:22.397Z,3.41
2023-03-06T20:03:50.870Z,3.52
2023-03-06T20:06:19.887Z,3.62
2023-03-06T20:08:47.534Z,3.58
2023-03-06T20:11:18.301Z,3.63
2023-03-06T20:13:47.352Z,3.57
2023-03-06T20:16:15.280Z,3.50
2023-03-06T20:18:42.058Z,3.30
2023-03-06T20:21:08.921Z,3.35
2023-03-06T20:23:35.741Z,3.30
2023-03-06T20:26:04.712Z,3.39
2023-03-06T20:28:31.875Z,3.38
2023-03-06T20:30:58.669Z,3.34
2023-03-06T20:33:26.776Z,3.23
2023-03-06T20:35:54.483Z,3.35
2023-03-06T20:38:21.303Z,3.11
2023-03-06T20:40:48.010Z,2.92
2023-03-06T20:43:14.775Z,2.79
2023-03-06T20:45:41.652Z,2.97
2023-03-06T20:48:08.424Z,2.94
2023-03-06T20:50:35.127Z,3.08
2023-03-06T20:53:02.012Z,3.15
2023-03-06T20:55:28.689Z,3.13
2023-03-06T20:57:55.354Z,3.14
2023-03-06T21:00:22.153Z,3.06
2023-03-06T21:02:48.989Z,2.54
2023-03-06T21:05:15.730Z,2.69
2023-03-06T21:07:42.629Z,2.61
2023-03-06T21:10:09.942Z,2.31
2023-03-06T21:12:36.588Z,2.51
2023-03-06T21:15:03.818Z,2.57
2023-03-06T21:17:30.598Z,2.46
2023-03-06T21:19:58.488Z,2.33
2023-03-06T21:22:25.609Z,2.45
2023-03-06T21:24:52.240Z,2.51
2023-03-06T21:27:18.939Z,2.57
2023-03-06T21:29:45.897Z,2.70
2023-03-06T21:32:12.553Z,2.59
2023-03-06T21:34:39.201Z,2.61
2023-03-06T21:37:05.927Z,2.39
2023-03-06T21:39:32.675Z,2.30
2023-03-06T21:41:59.355Z,2.21
2023-03-06T21:44:26.198Z,2.22
2023-03-06T21:46:52.891Z,2.37
2023-03-06T21:49:22.986Z,2.44
2023-03-06T21:51:50.878Z,2.51
2023-03-06T21:54:17.562Z,2.51
2023-03-06T21:56:44.315Z,2.64
2023-03-06T21:59:11.066Z,2.39
2023-03-06T22:01:37.768Z,2.27
2023-03-06T22:04:04.743Z,2.27
2023-03-06T22:06:31.836Z,2.19
2023-03-06T22:09:00.021Z,2.39
2023-03-06T22:11:30.651Z,2.44
2023-03-06T22:13:58.285Z,2.61
2023-03-06T22:16:25.022Z,2.27
2023-03-06T22:18:52.186Z,2.26
2023-03-06T22:21:21.702Z,2.18
2023-03-06T22:23:53.543Z,2.09
2023-03-06T22:26:20.667Z,2.32
2023-03-06T22:28:47.461Z,2.22
2023-03-06T22:31:19.936Z,2.35
2023-03-06T22:33:47.069Z,2.56
2023-03-06T22:36:15.452Z,2.53
2023-03-06T22:38:44.667Z,2.61
2023-03-06T22:41:12.844Z,2.50
2023-03-06T22:43:39.826Z,2.42
2023-03-06T22:46:12.152Z,2.39
2023-03-06T22:48:39.124Z,2.55
2023-03-06T22:51:19.763Z,2.54
2023-03-06T22:53:48.023Z,2.77
2023-03-06T22:56:17.280Z,2.85
2023-03-06T22:58:45.060Z,2.79
2023-03-06T23:01:20.049Z,2.78
2023-03-06T23:03:51.721Z,2.98
2023-03-06T23:06:32.368Z,2.68
2023-03-06T23:09:03.388Z,2.69
2023-03-06T23:11:30.921Z,2.82
2023-03-06T23:13:58.104Z,2.73
2023-03-06T23:16:25.994Z,2.63
2023-03-06T23:18:53.590Z,2.87
2023-03-06T23:21:21.791Z,2.60
2023-03-06T23:23:50.775Z,2.60
2023-03-06T23:26:19.695Z,2.78
2023-03-06T23:28:46.634Z,2.65
2023-03-06T23:31:16.094Z,2.58
2023-03-06T23:33:42.936Z,2.75
2023-03-06T23:36:12.699Z,2.74
2023-03-06T23:38:41.068Z,2.49
2023-03-06T23:41:11.878Z,2.67
2023-03-06T23:43:38.855Z,2.53
2023-03-06T23:46:07.329Z,2.77
2023-03-06T23:48:36.040Z,2.78
2023-03-06T23:51:12.865Z,2.69
2023-03-06T23:53:39.595Z,2.69
2023-03-06T23:56:08.291Z,2.82
2023-03-06T23:58:35.830Z,2.63
